Time;durP1;ratioP1;P1;durP2;ratioP2;P2;SDS_P1;SDS_P2;PMS_P1;PMS_P2;Temp;Humidity;BMP_temperature;BMP_pressure;BME280_temperature;BME280_humidity;BME280_pressure;Samples;Min_cycle;Max_cycle;Signal;HPM_P1;HPM_P2
2022/08/12 00:42:57;;;;;;;5.38;2.25;;;17.50;83.60;;;;;;5059261;28;20318;-85
2022/08/12 00:45:23;;;;;;;5.03;1.85;;;17.50;83.80;;;;;;5057867;28;20223;-83
2022/08/12 00:47:52;;;;;;;2.27;1.70;;;17.50;84.10;;;;;;5059851;28;20220;-83
2022/08/12 00:50:20;;;;;;;1.80;1.50;;;17.40;84.80;;;;;;5072561;28;20251;-85
2022/08/12 00:52:50;;;;;;;2.40;1.50;;;17.40;85.00;;;;;;5065944;28;20233;-83
2022/08/12 00:55:19;;;;;;;3.25;1.58;;;17.30;85.60;;;;;;5061200;28;20224;-83
2022/08/12 00:57:48;;;;;;;2.28;1.77;;;17.30;86.10;;;;;;5068839;28;20219;-82
2022/08/12 01:00:20;;;;;;;2.15;1.65;;;17.20;86.40;;;;;;5062767;28;20225;-82
2022/08/12 01:02:50;;;;;;;2.78;1.58;;;17.20;86.60;;;;;;5062668;28;20219;-82
2022/08/12 01:13:41;;;;;;;2.15;1.55;;;17.10;87.80;;;;;;5069019;28;20621;-83
2022/08/12 01:16:10;;;;;;;2.43;1.90;;;17.10;87.90;;;;;;5094054;28;20226;-82
2022/08/12 01:18:40;;;;;;;2.63;1.70;;;17.00;88.10;;;;;;5094521;28;20246;-82
2022/08/12 01:21:15;;;;;;;1.88;1.60;;;17.00;88.80;;;;;;5088547;28;20231;-83
2022/08/12 01:24:05;;;;;;;2.53;1.83;;;17.00;89.20;;;;;;5073425;28;20219;-85
2022/08/12 01:26:34;;;;;;;3.80;1.80;;;16.90;89.60;;;;;;5062177;28;20223;-84
2022/08/12 01:29:02;;;;;;;3.28;1.80;;;16.90;89.40;;;;;;5056573;28;20223;-86
2022/08/12 01:31:29;;;;;;;2.97;1.70;;;16.90;89.50;;;;;;5059862;28;20223;-85
2022/08/12 01:34:02;;;;;;;1.85;1.67;;;16.80;89.90;;;;;;5062315;28;20223;-84
2022/08/12 01:36:36;;;;;;;2.95;1.63;;;16.80;90.20;;;;;;5062783;28;20223;-84
2022/08/12 01:39:04;;;;;;;2.45;1.90;;;16.80;90.30;;;;;;5059445;28;20227;-85
2022/08/12 01:41:35;;;;;;;3.50;1.63;;;16.70;90.40;;;;;;5060374;28;20864;-84
2022/08/12 01:44:01;;;;;;;2.10;1.80;;;16.70;90.50;;;;;;5063490;28;20230;-84
2022/08/12 01:46:44;;;;;;;3.15;1.83;;;16.70;90.70;;;;;;5060400;28;20228;-84
2022/08/12 01:49:33;;;;;;;4.20;2.20;;;16.60;91.20;;;;;;5053618;28;20321;-83
2022/08/12 01:52:03;;;;;;;2.10;1.53;;;16.60;91.30;;;;;;5051641;28;20227;-83
2022/08/12 01:54:37;;;;;;;3.47;1.70;;;16.60;91.10;;;;;;5057926;28;20372;-82
2022/08/12 01:57:10;;;;;;;4.10;1.70;;;16.50;91.30;;;;;;5062008;28;20228;-82
2022/08/12 01:59:49;;;;;;;2.47;1.65;;;16.50;91.60;;;;;;5058142;28;20215;-83
2022/08/12 02:02:19;;;;;;;3.03;1.90;;;16.50;91.60;;;;;;5053164;28;20283;-84
2022/08/12 02:11:17;;;;;;;2.28;1.70;;;16.50;91.90;;;;;;5057373;28;20313;-83
2022/08/12 02:14:12;;;;;;;4.65;1.83;;;16.50;92.10;;;;;;5062641;28;20756;-83
2022/08/12 02:16:58;;;;;;;2.45;1.70;;;16.40;92.10;;;;;;5053326;28;20214;-81
2022/08/12 02:19:42;;;;;;;3.85;1.65;;;16.40;92.20;;;;;;5057035;28;20223;-81
2022/08/12 02:22:16;;;;;;;3.70;2.15;;;16.40;92.10;;;;;;5057719;28;20215;-85
2022/08/12 02:24:46;;;;;;;2.60;2.00;;;16.40;92.10;;;;;;5055249;28;20754;-85
2022/08/12 02:27:15;;;;;;;4.43;1.80;;;16.40;92.20;;;;;;5057257;28;20306;-85
2022/08/12 02:29:43;;;;;;;4.50;2.00;;;16.40;92.30;;;;;;5054652;28;20334;-84
2022/08/12 02:32:11;;;;;;;3.88;2.10;;;16.30;92.40;;;;;;5049957;28;20235;-84
2022/08/12 02:34:38;;;;;;;2.73;1.80;;;16.30;92.50;;;;;;5070096;28;20226;-84
2022/08/12 02:37:09;;;;;;;3.25;2.00;;;16.30;92.70;;;;;;5062151;28;20807;-84
2022/08/12 02:39:40;;;;;;;3.77;2.23;;;16.30;93.00;;;;;;5063162;28;20875;-84
2022/08/12 02:42:09;;;;;;;4.38;2.00;;;16.30;93.10;;;;;;5058603;28;20306;-83
2022/08/12 02:44:42;;;;;;;2.90;1.90;;;16.20;93.10;;;;;;5054807;28;20223;-84
2022/08/12 02:47:11;;;;;;;3.40;2.10;;;16.20;93.20;;;;;;5063942;28;20234;-82
2022/08/12 02:49:46;;;;;;;2.37;1.90;;;16.20;93.30;;;;;;5065975;28;20227;-83
2022/08/12 02:52:14;;;;;;;2.47;1.90;;;16.20;93.40;;;;;;5066162;28;20231;-82
2022/08/12 02:54:45;;;;;;;3.13;1.97;;;16.20;93.40;;;;;;5068262;28;20231;-82
2022/08/12 02:57:16;;;;;;;2.07;1.87;;;16.20;93.70;;;;;;5053860;28;20932;-82
2022/08/12 02:59:43;;;;;;;2.55;1.88;;;16.10;93.60;;;;;;5043933;28;20234;-84
2022/08/12 03:02:14;;;;;;;4.28;1.95;;;16.10;93.70;;;;;;5059786;28;20314;-84
2022/08/12 03:04:46;;;;;;;2.43;1.97;;;16.10;93.80;;;;;;5052358;28;20231;-83
2022/08/12 03:07:18;;;;;;;3.43;1.83;;;16.00;93.90;;;;;;5061151;28;20307;-83
2022/08/12 03:09:50;;;;;;;6.70;2.03;;;16.00;94.20;;;;;;5063470;28;20769;-81
2022/08/12 03:12:18;;;;;;;3.00;1.73;;;15.90;94.20;;;;;;5055275;28;20234;-82
2022/08/12 03:14:46;;;;;;;2.10;1.90;;;15.90;94.30;;;;;;5058916;28;20261;-82
2022/08/12 03:17:19;;;;;;;2.60;2.00;;;15.80;94.40;;;;;;5048904;28;20219;-83
2022/08/12 03:19:45;;;;;;;2.60;1.97;;;15.80;95.10;;;;;;5056948;28;20225;-85
2022/08/12 03:22:13;;;;;;;3.10;2.10;;;15.70;94.90;;;;;;5058615;28;20227;-83
2022/08/12 03:24:43;;;;;;;2.43;2.20;;;15.70;95.20;;;;;;5068253;28;20233;-82
2022/08/12 03:27:14;;;;;;;3.53;1.90;;;15.60;95.20;;;;;;5063935;28;20273;-82
2022/08/12 03:29:46;;;;;;;2.27;2.03;;;15.60;95.50;;;;;;5054268;28;20307;-82
2022/08/12 03:32:14;;;;;;;3.57;2.03;;;15.60;95.60;;;;;;5062259;28;20626;-83
2022/08/12 03:34:44;;;;;;;2.70;2.00;;;15.50;95.80;;;;;;5058185;28;20609;-82
2022/08/12 03:37:11;;;;;;;2.90;2.10;;;15.50;96.00;;;;;;5067807;28;20241;-82
2022/08/12 03:39:43;;;;;;;4.70;2.13;;;15.40;96.00;;;;;;5063800;28;20231;-81
2022/08/12 03:42:31;;;;;;;4.93;2.30;;;15.40;96.20;;;;;;5054052;28;20241;-80
2022/08/12 04:01:51;;;;;;;2.43;2.23;;;15.00;97.00;;;;;;5045355;28;20220;-84
2022/08/12 04:04:22;;;;;;;3.77;2.50;;;14.90;97.20;;;;;;5048118;28;20258;-83
2022/08/12 04:06:49;;;;;;;2.97;2.10;;;14.90;97.70;;;;;;5061784;28;20287;-82
2022/08/12 04:09:19;;;;;;;3.60;2.60;;;14.90;97.80;;;;;;5063654;28;20250;-82
2022/08/12 04:14:31;;;;;;;4.47;2.60;;;14.80;97.80;;;;;;5063187;28;20223;-81
2022/08/12 04:16:58;;;;;;;3.43;2.47;;;14.80;98.00;;;;;;5065679;28;20215;-82
2022/08/12 04:19:27;;;;;;;4.47;2.70;;;14.70;98.20;;;;;;5059323;28;20310;-82
2022/08/12 04:21:55;;;;;;;4.23;2.50;;;14.70;98.40;;;;;;5060590;28;20218;-83
2022/08/12 04:24:24;;;;;;;3.53;2.80;;;14.70;98.40;;;;;;5047797;28;20358;-83
2022/08/12 04:26:51;;;;;;;2.87;2.37;;;14.70;98.30;;;;;;5046855;28;20574;-83
2022/08/12 04:29:20;;;;;;;3.43;3.00;;;14.70;98.40;;;;;;5051880;28;20311;-83
2022/08/12 04:31:47;;;;;;;7.17;2.57;;;14.70;98.60;;;;;;5062228;28;20741;-83
2022/08/12 04:34:14;;;;;;;4.93;3.00;;;14.70;98.40;;;;;;5056324;28;20234;-83
2022/08/12 04:36:43;;;;;;;4.07;2.70;;;14.70;98.60;;;;;;5060243;28;21062;-82
2022/08/12 04:39:11;;;;;;;4.37;2.80;;;14.60;99.10;;;;;;5048974;28;20250;-84
2022/08/12 04:41:39;;;;;;;4.27;2.80;;;14.60;99.10;;;;;;5054902;28;20224;-84
2022/08/12 04:44:07;;;;;;;2.83;2.43;;;14.70;99.10;;;;;;5055210;28;20230;-87
2022/08/12 04:46:35;;;;;;;5.33;2.50;;;14.60;99.30;;;;;;5054044;28;20228;-89
2022/08/12 04:49:02;;;;;;;5.10;2.70;;;14.70;99.50;;;;;;5055535;28;20219;-88
2022/08/12 04:51:29;;;;;;;3.27;2.33;;;14.70;99.60;;;;;;5048933;28;20239;-87
2022/08/12 04:53:59;;;;;;;4.10;2.60;;;14.70;99.70;;;;;;5051147;28;20240;-87
2022/08/12 04:56:27;;;;;;;3.87;2.40;;;14.70;99.80;;;;;;5048897;28;20754;-87
2022/08/12 04:58:54;;;;;;;3.40;2.30;;;14.80;99.80;;;;;;5045592;28;22170;-87
2022/08/12 05:01:21;;;;;;;3.70;2.50;;;14.80;99.90;;;;;;5051563;28;20963;-88
2022/08/12 05:03:50;;;;;;;3.43;2.57;;;14.90;99.80;;;;;;5047485;28;20232;-87
2022/08/12 05:06:17;;;;;;;4.70;2.73;;;14.90;99.90;;;;;;5047539;28;20216;-85
2022/08/12 05:08:44;;;;;;;4.37;2.43;;;14.90;99.90;;;;;;5050310;28;20627;-87
2022/08/12 05:11:12;;;;;;;4.30;2.60;;;15.00;99.90;;;;;;5053022;28;20535;-88
2022/08/12 05:13:40;;;;;;;3.90;2.67;;;15.00;99.90;;;;;;5057863;28;20323;-89
2022/08/12 05:16:08;;;;;;;4.03;2.63;;;15.10;99.90;;;;;;5056220;28;20216;-86
2022/08/12 05:18:36;;;;;;;3.50;2.30;;;15.10;99.90;;;;;;5051084;28;20312;-87
2022/08/12 05:21:06;;;;;;;4.43;2.60;;;15.20;99.90;;;;;;5058539;28;20250;-88
2022/08/12 05:23:35;;;;;;;4.67;2.60;;;15.30;99.90;;;;;;5053731;28;20637;-87
2022/08/12 05:26:04;;;;;;;4.27;2.37;;;15.30;99.90;;;;;;5067543;28;20233;-81
2022/08/12 05:28:33;;;;;;;3.90;2.43;;;15.40;99.90;;;;;;5065065;28;20320;-81
2022/08/12 05:31:00;;;;;;;6.13;2.80;;;15.50;99.90;;;;;;5066720;28;20306;-82
2022/08/12 05:33:36;;;;;;;3.93;2.47;;;15.50;99.90;;;;;;5064606;28;20318;-83
2022/08/12 05:36:06;;;;;;;4.17;2.63;;;15.60;99.90;;;;;;5068103;28;20233;-82
2022/08/12 05:41:20;;;;;;;3.50;2.63;;;15.70;99.90;;;;;;5060823;28;20770;-82
2022/08/12 05:43:50;;;;;;;5.90;2.77;;;15.80;99.90;;;;;;5066447;28;20783;-82
2022/08/12 05:46:17;;;;;;;4.13;2.90;;;15.80;99.90;;;;;;5067872;28;20234;-82
2022/08/12 05:48:44;;;;;;;5.37;2.40;;;15.90;99.90;;;;;;5066185;28;20302;-81
2022/08/12 05:51:11;;;;;;;6.53;2.80;;;16.00;99.90;;;;;;5068189;28;20238;-82
2022/08/12 05:53:38;;;;;;;5.22;2.90;;;16.00;99.90;;;;;;5065819;28;20231;-82
2022/08/12 05:56:06;;;;;;;4.93;2.50;;;16.10;99.90;;;;;;5068491;28;20231;-82
2022/08/12 05:58:33;;;;;;;4.13;2.60;;;16.20;99.90;;;;;;5066776;28;20325;-82
2022/08/12 06:01:02;;;;;;;3.83;2.37;;;16.30;99.90;;;;;;5065136;28;20230;-82
2022/08/12 06:03:28;;;;;;;3.88;2.30;;;16.30;99.90;;;;;;5056709;28;20235;-82
2022/08/12 06:05:55;;;;;;;6.67;2.50;;;16.40;99.90;;;;;;5067718;28;20216;-81
2022/08/12 06:08:24;;;;;;;5.10;2.53;;;16.50;99.90;;;;;;5065416;28;20226;-82
2022/08/12 06:10:51;;;;;;;4.20;2.65;;;16.50;99.90;;;;;;5066718;28;20699;-81
2022/08/12 06:13:18;;;;;;;2.73;2.40;;;16.60;99.90;;;;;;5072699;28;20374;-82
2022/08/12 06:15:45;;;;;;;3.60;2.35;;;16.70;99.90;;;;;;5072476;28;20223;-81
2022/08/12 06:18:13;;;;;;;2.63;2.30;;;16.70;99.90;;;;;;5076310;28;20234;-81
2022/08/12 06:20:40;;;;;;;4.50;2.45;;;16.80;99.90;;;;;;5065902;28;20219;-81
2022/08/12 06:23:06;;;;;;;4.28;2.30;;;16.90;99.90;;;;;;5060035;28;20369;-79
2022/08/12 06:25:33;;;;;;;5.15;2.55;;;17.00;99.90;;;;;;5058940;28;20223;-81
2022/08/12 06:28:02;;;;;;;3.17;2.17;;;17.00;99.90;;;;;;5077267;28;20226;-82
2022/08/12 06:30:32;;;;;;;10.15;5.00;;;17.10;99.90;;;;;;5066739;28;20227;-82
2022/08/12 06:32:59;;;;;;;4.30;2.75;;;17.20;99.90;;;;;;5086274;28;20227;-82
2022/08/12 06:35:27;;;;;;;3.78;2.42;;;17.30;99.90;;;;;;5084088;28;20246;-82
2022/08/12 06:37:55;;;;;;;4.38;2.42;;;17.40;99.90;;;;;;5069698;28;20627;-83
2022/08/12 06:43:04;;;;;;;3.72;2.47;;;17.50;99.90;;;;;;5044215;28;20224;-81
2022/08/12 06:45:31;;;;;;;4.25;2.20;;;17.60;99.80;;;;;;5044735;28;20227;-82
2022/08/12 06:48:02;;;;;;;4.20;2.20;;;17.70;99.80;;;;;;5055988;28;20223;-82
2022/08/12 06:50:30;;;;;;;2.90;2.50;;;17.70;99.70;;;;;;5053338;28;20307;-86
2022/08/12 06:52:59;;;;;;;4.82;2.50;;;17.80;99.70;;;;;;5050439;28;20238;-88
2022/08/12 06:55:25;;;;;;;5.18;2.50;;;17.90;99.60;;;;;;5054183;28;20231;-85
2022/08/12 06:57:54;;;;;;;3.25;2.15;;;18.00;99.50;;;;;;5058022;28;21248;-86
2022/08/12 07:00:25;;;;;;;2.83;2.55;;;18.10;99.50;;;;;;5047550;28;20263;-86
2022/08/12 07:02:54;;;;;;;2.88;2.28;;;18.10;99.40;;;;;;5053876;28;20223;-88
2022/08/12 07:05:24;;;;;;;3.92;2.40;;;18.20;99.20;;;;;;5059388;28;20212;-87
2022/08/12 07:08:10;;;;;;;4.50;2.55;;;18.30;99.10;;;;;;5068283;28;20224;-86
2022/08/12 07:10:43;;;;;;;3.60;2.47;;;18.40;99.00;;;;;;5068461;28;20226;-85
2022/08/12 07:13:10;;;;;;;4.65;2.22;;;18.50;99.10;;;;;;5058517;28;20249;-86
2022/08/12 07:15:38;;;;;;;3.85;2.20;;;18.50;98.80;;;;;;5058293;28;20231;-85
2022/08/12 07:18:10;;;;;;;2.50;2.22;;;18.60;98.70;;;;;;5055974;28;20219;-85
2022/08/12 07:20:39;;;;;;;3.22;2.30;;;18.80;98.90;;;;;;5070254;28;20317;-86
2022/08/12 07:23:06;;;;;;;5.95;2.15;;;19.10;99.30;;;;;;5053057;28;20227;-86
2022/08/12 07:25:36;;;;;;;2.50;2.03;;;19.60;99.30;;;;;;5055734;28;20227;-85
2022/08/12 07:28:07;;;;;;;3.20;2.15;;;20.30;99.00;;;;;;5054569;28;20228;-86
2022/08/12 07:30:36;;;;;;;3.58;2.20;;;21.20;98.20;;;;;;5054889;28;20224;-88
2022/08/12 07:33:03;;;;;;;4.45;2.08;;;22.20;97.50;;;;;;5045176;28;20783;-89
2022/08/12 07:35:32;;;;;;;4.22;2.30;;;23.20;96.20;;;;;;5047126;28;20688;-88
2022/08/12 07:38:01;;;;;;;5.38;2.28;;;24.20;94.90;;;;;;5047425;28;20688;-88
2022/08/12 07:40:29;;;;;;;3.42;2.25;;;25.20;93.40;;;;;;5048368;28;20684;-88
2022/08/12 07:42:57;;;;;;;3.70;1.80;;;26.00;91.90;;;;;;5052388;28;20633;-88
2022/08/12 07:45:24;;;;;;;3.80;1.92;;;26.80;90.70;;;;;;5069026;28;22135;-88
2022/08/12 07:47:51;;;;;;;2.33;1.80;;;27.50;89.20;;;;;;5088585;28;20244;-89
2022/08/12 07:50:19;;;;;;;4.43;2.10;;;28.20;86.00;;;;;;5080341;28;20287;-90
2022/08/12 07:52:47;;;;;;;3.55;2.20;;;28.70;82.80;;;;;;5067253;28;20317;-88
2022/08/12 07:55:15;;;;;;;7.22;2.20;;;29.20;80.70;;;;;;5065516;28;20229;-91
2022/08/12 07:57:51;;;;;;;2.40;1.80;;;29.60;77.90;;;;;;5067295;28;20280;-89
2022/08/12 08:00:20;;;;;;;2.55;2.10;;;30.00;74.00;;;;;;5066419;28;20789;-89
2022/08/12 08:02:48;;;;;;;5.53;2.55;;;30.30;73.30;;;;;;5070073;28;20222;-89
2022/08/12 08:05:15;;;;;;;3.42;2.47;;;30.70;74.30;;;;;;5065536;28;20396;-90
2022/08/12 08:07:41;;;;;;;3.70;2.25;;;31.10;73.10;;;;;;5086222;28;20238;-89
2022/08/12 08:10:09;;;;;;;2.65;2.00;;;31.40;70.70;;;;;;5065527;28;20277;-90
2022/08/12 08:12:54;;;;;;;3.20;1.77;;;31.80;69.80;;;;;;5063334;28;21084;-89
2022/08/12 08:15:25;;;;;;;2.00;1.73;;;32.10;68.50;;;;;;5065386;28;20308;-90
2022/08/12 08:17:58;;;;;;;4.72;2.25;;;32.50;66.90;;;;;;5066223;28;20302;-90
2022/08/12 08:20:27;;;;;;;2.38;1.98;;;32.90;64.90;;;;;;5066081;28;20231;-90
2022/08/12 08:22:56;;;;;;;2.92;2.22;;;33.10;64.30;;;;;;5069948;28;20280;-94
2022/08/12 08:25:29;;;;;;;3.75;2.47;;;33.30;62.50;;;;;;5062978;28;20227;-90
2022/08/12 08:27:57;;;;;;;3.60;2.20;;;33.60;62.00;;;;;;5069391;28;20215;-89
2022/08/12 08:30:26;;;;;;;3.10;1.73;;;33.90;60.50;;;;;;5068080;28;20257;-89
2022/08/12 08:32:53;;;;;;;4.47;2.10;;;34.10;58.90;;;;;;5065795;28;20318;-90
2022/08/12 08:35:23;;;;;;;3.92;2.05;;;34.50;59.40;;;;;;5063462;28;20227;-90
2022/08/12 08:37:51;;;;;;;4.68;2.25;;;34.70;58.00;;;;;;5066564;28;20227;-90
2022/08/12 08:43:04;;;;;;;5.50;2.10;;;35.10;56.00;;;;;;5074711;28;20695;-90
2022/08/12 08:45:32;;;;;;;3.28;2.20;;;35.20;55.90;;;;;;5063644;28;20232;-91
2022/08/12 08:47:59;;;;;;;2.17;1.80;;;35.50;55.10;;;;;;5061480;28;20226;-92
2022/08/12 08:50:26;;;;;;;3.95;2.13;;;35.70;54.70;;;;;;5065136;28;20298;-92
2022/08/12 08:52:52;;;;;;;3.97;2.22;;;36.00;54.20;;;;;;5079907;28;20239;-91
2022/08/12 08:55:19;;;;;;;4.32;2.42;;;36.30;53.50;;;;;;5069090;28;20254;-90
2022/08/12 08:57:49;;;;;;;3.17;1.95;;;36.60;53.00;;;;;;5066351;28;20226;-90
2022/08/12 09:00:17;;;;;;;7.03;2.60;;;36.80;51.70;;;;;;5063547;28;20269;-90
2022/08/12 09:02:47;;;;;;;4.70;2.17;;;36.90;51.30;;;;;;5065535;28;20305;-90
2022/08/12 09:05:16;;;;;;;5.78;1.75;;;37.00;50.50;;;;;;5059792;28;20717;-90
2022/08/12 09:07:44;;;;;;;3.03;2.00;;;37.20;50.80;;;;;;5058577;28;20231;-90
2022/08/12 09:10:12;;;;;;;3.50;2.08;;;37.30;48.80;;;;;;5057763;28;20242;-91
2022/08/12 09:15:24;;;;;;;4.45;2.05;;;37.40;48.20;;;;;;5062484;28;20220;-91
2022/08/12 09:17:54;;;;;;;3.80;2.00;;;37.40;48.30;;;;;;5070152;28;20219;-91
2022/08/12 09:20:25;;;;;;;3.17;1.80;;;37.30;47.80;;;;;;5066256;28;20227;-90
2022/08/12 09:22:52;;;;;;;3.75;2.10;;;37.20;48.10;;;;;;5074253;28;20238;-91
2022/08/12 09:25:19;;;;;;;3.10;2.00;;;37.20;48.20;;;;;;5064587;28;20215;-93
2022/08/12 09:27:46;;;;;;;2.40;2.15;;;37.20;47.90;;;;;;5055288;28;20225;-86
2022/08/12 09:30:14;;;;;;;3.40;2.15;;;37.20;47.40;;;;;;5053043;28;20765;-89
2022/08/12 09:32:43;;;;;;;7.65;2.53;;;37.20;47.30;;;;;;5058743;28;20309;-90
2022/08/12 09:35:11;;;;;;;4.05;1.90;;;37.10;47.80;;;;;;5062202;28;20223;-88
2022/08/12 09:37:38;;;;;;;3.92;2.10;;;37.10;47.70;;;;;;5061302;28;20231;-87
2022/08/12 09:40:06;;;;;;;2.88;2.03;;;37.30;47.60;;;;;;5057993;28;20255;-89
2022/08/12 09:45:23;;;;;;;3.38;2.00;;;37.80;47.20;;;;;;5061909;28;20567;-88
2022/08/12 09:47:50;;;;;;;4.18;2.17;;;38.20;46.80;;;;;;5058957;28;20808;-89
2022/08/12 09:50:18;;;;;;;3.13;2.10;;;38.60;45.80;;;;;;5057405;28;20226;-88
2022/08/12 09:52:51;;;;;;;6.53;1.92;;;38.80;44.60;;;;;;5063595;28;20230;-85
2022/08/12 09:55:18;;;;;;;4.07;2.22;;;38.90;43.20;;;;;;5056324;28;20220;-83
2022/08/12 09:57:45;;;;;;;3.08;2.10;;;39.10;43.30;;;;;;5056825;28;20237;-85
2022/08/12 10:00:12;;;;;;;4.40;2.10;;;39.00;42.10;;;;;;5048852;28;20228;-86
2022/08/12 10:03:01;;;;;;;3.55;2.15;;;39.00;42.30;;;;;;5047107;28;20215;-86
2022/08/12 10:05:32;;;;;;;3.80;2.10;;;38.80;42.50;;;;;;5053424;28;20903;-85
2022/08/12 10:07:59;;;;;;;6.18;2.30;;;38.70;41.80;;;;;;5061977;28;20238;-85
2022/08/12 10:10:26;;;;;;;7.97;2.08;;;38.70;42.30;;;;;;5069200;28;20231;-84
2022/08/12 10:15:43;;;;;;;3.40;1.90;;;38.80;41.50;;;;;;5066114;28;20593;-86
2022/08/12 10:18:10;;;;;;;2.67;1.95;;;39.00;41.70;;;;;;5058161;28;20300;-86
2022/08/12 10:20:39;;;;;;;2.10;1.83;;;39.10;41.10;;;;;;5053596;28;20223;-84
2022/08/12 10:23:06;;;;;;;5.65;2.25;;;39.30;41.10;;;;;;5044098;28;20226;-84
2022/08/12 10:31:03;;;;;;;4.72;1.90;;;39.90;40.60;;;;;;5052421;28;20244;-88
2022/08/12 10:33:30;;;;;;;3.30;2.00;;;40.00;39.50;;;;;;5046939;28;20224;-87
2022/08/12 10:35:59;;;;;;;4.97;2.10;;;40.10;39.00;;;;;;5057151;28;20222;-82
2022/08/12 10:38:25;;;;;;;2.90;2.00;;;40.10;39.20;;;;;;5066785;28;20318;-82
2022/08/12 10:43:43;;;;;;;4.03;1.80;;;40.20;39.10;;;;;;5067060;28;20242;-82
2022/08/12 10:46:16;;;;;;;2.90;1.88;;;40.30;38.20;;;;;;5054758;28;20235;-82
2022/08/12 10:48:50;;;;;;;6.47;2.20;;;40.30;37.90;;;;;;5061175;28;20273;-82
2022/08/12 10:51:18;;;;;;;3.65;2.00;;;40.30;37.80;;;;;;5045586;28;20366;-82
2022/08/12 10:53:45;;;;;;;2.40;1.63;;;40.40;37.20;;;;;;5050880;28;20227;-82
2022/08/12 10:56:12;;;;;;;2.20;1.60;;;40.30;36.00;;;;;;5052229;28;20234;-82
2022/08/12 10:58:39;;;;;;;3.55;1.70;;;40.30;35.40;;;;;;5051093;28;20345;-81
2022/08/12 11:01:09;;;;;;;4.38;2.00;;;40.30;35.30;;;;;;5052524;28;20220;-82
2022/08/12 11:03:36;;;;;;;3.85;1.73;;;40.30;34.40;;;;;;5049930;28;20259;-82
2022/08/12 11:06:05;;;;;;;2.65;2.03;;;40.40;34.70;;;;;;5060201;28;20249;-82
2022/08/12 11:08:34;;;;;;;2.25;1.60;;;40.30;34.60;;;;;;5066043;28;20339;-82
2022/08/12 11:11:01;;;;;;;2.85;1.52;;;40.30;33.60;;;;;;5054291;28;20243;-82
2022/08/12 11:13:27;;;;;;;2.95;1.92;;;40.30;34.00;;;;;;5051158;28;20231;-82
2022/08/12 11:15:54;;;;;;;3.75;1.83;;;40.30;33.60;;;;;;5059880;28;20231;-82
2022/08/12 11:18:22;;;;;;;2.78;2.58;;;40.20;33.10;;;;;;5053535;28;20747;-82
2022/08/12 11:20:50;;;;;;;3.13;1.77;;;40.20;33.30;;;;;;5057139;28;20229;-82
2022/08/12 11:23:17;;;;;;;2.50;2.00;;;40.20;33.20;;;;;;5055521;28;20688;-82
2022/08/12 11:25:45;;;;;;;3.17;1.60;;;40.30;33.00;;;;;;5055968;28;20227;-82
2022/08/12 11:28:12;;;;;;;5.18;1.67;;;40.20;32.50;;;;;;5055151;28;20224;-83
2022/08/12 11:30:39;;;;;;;2.33;1.50;;;40.20;32.60;;;;;;5056891;28;20235;-82
2022/08/12 11:33:06;;;;;;;3.53;1.67;;;40.10;32.70;;;;;;5017520;28;1007498;-83
2022/08/12 11:35:33;;;;;;;2.38;2.03;;;40.00;32.00;;;;;;5054441;28;20223;-83
2022/08/12 11:38:01;;;;;;;2.17;1.63;;;39.90;32.10;;;;;;5056043;28;20286;-82
2022/08/12 11:40:28;;;;;;;2.08;1.70;;;39.90;32.30;;;;;;5053092;28;20223;-82
2022/08/12 11:42:59;;;;;;;3.50;1.60;;;39.80;31.80;;;;;;5057913;28;20230;-82
2022/08/12 11:45:26;;;;;;;2.35;1.70;;;39.60;31.70;;;;;;5068820;28;20314;-82
2022/08/12 11:47:53;;;;;;;2.88;1.65;;;39.60;31.90;;;;;;5055838;28;20726;-83
2022/08/12 11:50:20;;;;;;;2.60;1.98;;;39.50;32.20;;;;;;5052164;28;20676;-83
2022/08/12 11:52:47;;;;;;;3.40;2.05;;;39.50;32.80;;;;;;5062626;28;20765;-83
2022/08/12 11:55:14;;;;;;;1.92;1.83;;;39.50;32.80;;;;;;5061151;28;20234;-80
2022/08/12 11:57:49;;;;;;;4.72;2.00;;;39.60;32.60;;;;;;5058232;28;20219;-80
2022/08/12 12:00:18;;;;;;;2.65;1.52;;;39.60;32.70;;;;;;5052131;28;20227;-80
2022/08/12 12:02:45;;;;;;;2.40;1.80;;;39.60;31.80;;;;;;5052621;28;20224;-79
2022/08/12 12:05:13;;;;;;;2.53;1.60;;;39.60;31.70;;;;;;5052724;28;20227;-80
2022/08/12 12:07:41;;;;;;;2.85;1.45;;;39.60;31.20;;;;;;5053165;28;20219;-81
2022/08/12 12:10:09;;;;;;;6.55;1.80;;;39.40;31.60;;;;;;5059934;28;20228;-80
2022/08/12 12:12:35;;;;;;;4.78;1.80;;;39.30;31.40;;;;;;5057588;28;20223;-80
2022/08/12 12:15:03;;;;;;;4.07;1.80;;;39.30;30.80;;;;;;5050039;28;20242;-80
2022/08/12 12:17:35;;;;;;;2.40;1.80;;;39.30;31.10;;;;;;5060030;28;20223;-79
2022/08/12 12:20:02;;;;;;;2.78;1.60;;;39.30;30.00;;;;;;5060050;28;20227;-80
2022/08/12 12:22:29;;;;;;;2.00;1.60;;;39.40;30.40;;;;;;5057687;28;20224;-79
2022/08/12 12:24:55;;;;;;;1.80;1.45;;;39.40;29.50;;;;;;5056515;28;20596;-80
2022/08/12 12:27:22;;;;;;;3.88;1.73;;;39.40;29.70;;;;;;5060588;28;20743;-80
2022/08/12 12:29:49;;;;;;;1.95;1.65;;;39.40;29.60;;;;;;5057669;28;20239;-80
2022/08/12 12:32:15;;;;;;;3.10;1.67;;;39.20;29.50;;;;;;5052310;28;20752;-81
2022/08/12 12:34:43;;;;;;;2.35;1.92;;;39.10;29.20;;;;;;5048607;28;20334;-81
2022/08/12 12:37:12;;;;;;;2.80;1.85;;;39.00;29.10;;;;;;5066550;28;20218;-79
2022/08/12 12:39:39;;;;;;;5.53;1.65;;;38.90;29.60;;;;;;5064752;28;20258;-79
2022/08/12 12:42:05;;;;;;;4.47;1.80;;;38.70;29.60;;;;;;5058952;28;20251;-81
2022/08/12 12:44:32;;;;;;;2.58;1.70;;;38.50;29.70;;;;;;5058264;28;21013;-80
2022/08/12 12:46:59;;;;;;;3.45;1.75;;;38.30;30.00;;;;;;5058391;28;20223;-81
2022/08/12 12:49:26;;;;;;;4.57;1.80;;;38.10;30.20;;;;;;5059186;28;20237;-80
2022/08/12 12:51:54;;;;;;;2.20;1.60;;;37.90;30.20;;;;;;5053097;28;20230;-80
2022/08/12 12:54:22;;;;;;;2.58;1.67;;;37.70;30.30;;;;;;5054260;28;20215;-81
2022/08/12 12:56:53;;;;;;;1.90;1.63;;;37.50;30.50;;;;;;5048011;28;20223;-83
2022/08/12 12:59:22;;;;;;;3.85;1.83;;;37.30;30.40;;;;;;5049806;28;20615;-82
2022/08/12 13:01:49;;;;;;;3.85;1.60;;;37.20;30.70;;;;;;5058649;28;20216;-83
2022/08/12 13:04:17;;;;;;;3.92;1.80;;;37.20;31.40;;;;;;5053470;28;20302;-82
2022/08/12 13:06:50;;;;;;;2.00;1.60;;;37.30;30.90;;;;;;5050940;28;20234;-83
2022/08/12 13:09:19;;;;;;;8.75;1.80;;;37.30;30.60;;;;;;5061276;28;20254;-83
2022/08/12 13:11:47;;;;;;;1.60;1.50;;;37.40;31.00;;;;;;5059068;28;20318;-82
2022/08/12 13:14:15;;;;;;;2.60;1.70;;;37.50;31.10;;;;;;5055783;28;20224;-83
2022/08/12 13:16:43;;;;;;;3.20;2.40;;;37.50;31.30;;;;;;5055670;28;20228;-82
2022/08/12 13:19:10;;;;;;;3.80;1.85;;;37.60;31.00;;;;;;5050323;28;20281;-83
2022/08/12 13:22:14;;;;;;;3.42;1.77;;;37.60;30.70;;;;;;5051989;28;20219;-82
2022/08/12 13:24:25;;;;;;;5.75;1.80;;;37.70;30.90;;;;;;5024695;28;20691;-82
2022/08/12 13:26:52;;;;;;;4.72;2.03;;;37.80;30.50;;;;;;5054994;28;21154;-84
2022/08/12 13:29:18;;;;;;;2.20;1.52;;;37.80;30.10;;;;;;5055666;28;20227;-82
2022/08/12 13:31:47;;;;;;;5.15;1.65;;;37.80;30.20;;;;;;5052163;28;20237;-83
2022/08/12 13:34:14;;;;;;;1.85;1.50;;;37.80;30.10;;;;;;5044107;28;20682;-83
2022/08/12 13:36:42;;;;;;;2.45;1.60;;;37.70;30.00;;;;;;5056656;28;20235;-83
2022/08/12 13:39:09;;;;;;;3.83;1.98;;;37.60;29.90;;;;;;5046328;28;20235;-83
2022/08/12 13:41:37;;;;;;;3.05;1.70;;;37.60;30.00;;;;;;5052717;28;20219;-82
2022/08/12 13:44:07;;;;;;;1.85;1.60;;;37.60;29.70;;;;;;5055544;28;20259;-82
2022/08/12 13:46:34;;;;;;;4.80;1.63;;;37.60;29.70;;;;;;5052850;28;20731;-83
2022/08/12 13:49:02;;;;;;;6.93;1.90;;;37.40;29.80;;;;;;5063215;28;20230;-83
2022/08/12 13:51:30;;;;;;;2.00;1.80;;;37.30;29.70;;;;;;5053778;28;20330;-83
2022/08/12 13:53:56;;;;;;;4.88;1.95;;;37.10;30.00;;;;;;5055736;28;20231;-83
2022/08/12 13:56:25;;;;;;;3.22;2.00;;;37.00;30.80;;;;;;5052590;28;20582;-83
2022/08/12 13:58:54;;;;;;;1.88;1.50;;;37.00;30.70;;;;;;5054522;28;20334;-82
2022/08/12 14:01:21;;;;;;;2.28;1.40;;;36.90;30.50;;;;;;5051634;28;20320;-82
2022/08/12 14:03:48;;;;;;;2.40;1.75;;;37.00;30.10;;;;;;5049490;28;20280;-83
2022/08/12 14:06:16;;;;;;;2.33;1.60;;;36.90;30.30;;;;;;5051863;28;20223;-82
2022/08/12 14:08:43;;;;;;;2.67;1.50;;;36.80;30.00;;;;;;5071747;28;20222;-85
2022/08/12 14:11:11;;;;;;;2.80;1.63;;;36.70;30.00;;;;;;5060338;28;20255;-85
2022/08/12 14:13:38;;;;;;;3.63;1.55;;;36.60;29.90;;;;;;5043573;28;20306;-85
2022/08/12 14:16:09;;;;;;;2.63;1.50;;;36.50;29.90;;;;;;5063959;28;20231;-86
2022/08/12 14:18:38;;;;;;;4.00;1.67;;;36.30;30.20;;;;;;5064808;28;20230;-85
2022/08/12 14:21:08;;;;;;;4.55;1.80;;;36.20;30.40;;;;;;5065514;28;20230;-85
2022/08/12 14:23:38;;;;;;;3.03;1.42;;;36.10;30.70;;;;;;5059472;28;20223;-81
2022/08/12 14:26:06;;;;;;;2.13;1.75;;;36.10;30.80;;;;;;5060229;28;20833;-87
2022/08/12 14:28:35;;;;;;;2.53;1.73;;;36.00;30.50;;;;;;5049066;28;20235;-87
2022/08/12 14:31:03;;;;;;;4.07;1.70;;;36.10;30.10;;;;;;5048930;28;20326;-87
2022/08/12 14:33:33;;;;;;;4.30;1.80;;;36.10;30.70;;;;;;5046646;28;20228;-87
2022/08/12 14:36:02;;;;;;;29.95;23.77;;;36.10;30.90;;;;;;5046856;28;20227;-86